createdAt,value
2022-11-05T00:01:50.403Z,100772.22
2022-11-05T00:04:35.448Z,100766.97
2022-11-05T00:07:26.435Z,100771.41
2022-11-05T00:10:01.735Z,100776.84
2022-11-05T00:12:46.578Z,100769.72
2022-11-05T00:15:31.446Z,100779.38
2022-11-05T00:17:57.873Z,100789.66
2022-11-05T00:20:24.258Z,100795.94
2022-11-05T00:23:09.344Z,100794.91
2022-11-05T00:25:35.871Z,100787.56
2022-11-05T00:28:02.665Z,100797.63
2022-11-05T00:30:29.735Z,100796.63
2022-11-05T00:33:00.600Z,100799.34
2022-11-05T00:35:26.941Z,100802.06
2022-11-05T00:37:53.932Z,100803.91
2022-11-05T00:40:20.399Z,100803.91
2022-11-05T00:43:05.009Z,100803.09
2022-11-05T00:45:31.740Z,100813.81
2022-11-05T00:48:16.755Z,100816.72
2022-11-05T00:50:43.195Z,100817.56
2022-11-05T00:53:09.855Z,100815.72
2022-11-05T00:55:40.731Z,100826.63
2022-11-05T00:58:08.473Z,100817.56
2022-11-05T01:00:36.689Z,100821.16
2022-11-05T01:03:05.644Z,100825.75
2022-11-05T01:05:32.894Z,100827.47
2022-11-05T01:07:59.678Z,100823.03
2022-11-05T01:10:26.439Z,100826.63
2022-11-05T01:12:52.938Z,100825.75
2022-11-05T01:15:19.518Z,100832.91
2022-11-05T01:17:46.019Z,100827.47
2022-11-05T01:20:12.708Z,100838.38
2022-11-05T01:22:39.038Z,100832.06
2022-11-05T01:25:07.346Z,100831.03
2022-11-05T01:27:33.891Z,100844.66
2022-11-05T01:30:00.257Z,100847.41
2022-11-05T01:32:26.594Z,100849.28
2022-11-05T01:34:52.922Z,100841.94
2022-11-05T01:37:19.263Z,100853.91
2022-11-05T01:39:45.580Z,100854.91
2022-11-05T01:42:18.879Z,100858.31
2022-11-05T01:44:54.340Z,100851.34
2022-11-05T01:47:32.477Z,100857.47
2022-11-05T01:50:00.473Z,100852.84
2022-11-05T01:52:28.165Z,100853.91
2022-11-05T01:54:54.661Z,100856.63
2022-11-05T01:57:21.276Z,100858.31
2022-11-05T01:59:50.500Z,100862.94
2022-11-05T02:02:17.629Z,100866.66
2022-11-05T02:04:46.771Z,100857.47
2022-11-05T02:07:13.699Z,100871.09
2022-11-05T02:09:53.366Z,100869.22
2022-11-05T02:12:20.801Z,100876.56
2022-11-05T02:14:47.293Z,100875.72
2022-11-05T02:17:22.712Z,100877.56
2022-11-05T02:19:55.062Z,100873.00
2022-11-05T02:22:37.376Z,100870.28
2022-11-05T02:25:22.247Z,100883.03
2022-11-05T02:27:48.579Z,100881.19
2022-11-05T02:30:26.103Z,100885.75
2022-11-05T02:33:06.693Z,100887.66
2022-11-05T02:35:38.982Z,100893.09
2022-11-05T02:38:10.457Z,100892.25
2022-11-05T02:40:55.739Z,100901.28
2022-11-05T02:43:37.084Z,100906.75
2022-11-05T02:46:15.602Z,100907.78
2022-11-05T02:48:57.924Z,100909.47
2022-11-05T02:51:28.891Z,100915.13
2022-11-05T02:54:01.654Z,100917.00
2022-11-05T02:56:33.788Z,100924.16
2022-11-05T02:59:00.165Z,100922.25
2022-11-05T03:01:26.645Z,100916.81
2022-11-05T03:03:55.658Z,100925.00
2022-11-05T03:06:25.165Z,100930.44
2022-11-05T03:09:12.531Z,100934.03
2022-11-05T03:11:50.861Z,100935.91
2022-11-05T03:14:36.018Z,100937.78
2022-11-05T03:17:17.717Z,100935.06
2022-11-05T03:19:56.802Z,100941.38
2022-11-05T03:22:25.446Z,100941.56
2022-11-05T03:24:54.427Z,100950.38
2022-11-05T03:27:26.435Z,100953.31
2022-11-05T03:30:01.747Z,100959.63
2022-11-05T03:32:30.066Z,100960.66
2022-11-05T03:34:59.880Z,100958.56
2022-11-05T03:37:32.141Z,100966.97
2022-11-05T03:40:00.414Z,100971.38
2022-11-05T03:42:29.898Z,100977.03
2022-11-05T03:44:58.144Z,100972.41
2022-11-05T03:47:27.862Z,100970.72
2022-11-05T03:50:02.586Z,100974.09
2022-11-05T03:52:33.258Z,100973.25
2022-11-05T03:54:59.646Z,100986.06
2022-11-05T03:57:29.359Z,100981.44
2022-11-05T03:59:55.803Z,100986.06
2022-11-05T04:02:23.155Z,100993.41
2022-11-05T04:04:49.677Z,100993.41
2022-11-05T04:07:34.557Z,101007.88
2022-11-05T04:10:19.395Z,101003.47
2022-11-05T04:13:04.219Z,101007.88
2022-11-05T04:15:30.830Z,101001.56
2022-11-05T04:18:00.267Z,101006.19
2022-11-05T04:20:45.167Z,101008.06
2022-11-05T04:23:29.942Z,101011.66
2022-11-05T04:25:56.318Z,101013.53
2022-11-05T04:28:42.616Z,101018.13
2022-11-05T04:31:08.957Z,101029.03
2022-11-05T04:33:35.322Z,101040.63
2022-11-05T04:36:01.705Z,101026.28
2022-11-05T04:38:28.077Z,101031.75
2022-11-05T04:41:12.112Z,101038.09
2022-11-05T04:43:38.825Z,101035.16
2022-11-05T04:46:05.224Z,101038.94
2022-11-05T04:48:31.551Z,101029.91
2022-11-05T04:50:57.908Z,101030.91
2022-11-05T04:53:24.293Z,101035.34
2022-11-05T04:55:50.627Z,101040.81
2022-11-05T04:58:16.990Z,101040.81
2022-11-05T05:00:43.474Z,101040.81
2022-11-05T05:03:10.133Z,101053.41
2022-11-05T05:05:36.679Z,101055.47
2022-11-05T05:08:03.958Z,101051.03
2022-11-05T05:10:30.402Z,101050.84
2022-11-05T05:12:56.935Z,101053.56
2022-11-05T05:15:23.306Z,101056.31
2022-11-05T05:17:50.252Z,101064.47
2022-11-05T05:20:35.312Z,101063.66
2022-11-05T05:23:01.706Z,101066.38
2022-11-05T05:25:28.099Z,101059.03
2022-11-05T05:27:59.580Z,101061.97
2022-11-05T05:30:25.928Z,101068.09
2022-11-05T05:32:52.260Z,101068.25
2022-11-05T05:35:18.587Z,101068.25
2022-11-05T05:37:44.902Z,101075.41
2022-11-05T05:40:11.484Z,101077.28
2022-11-05T05:42:42.932Z,101089.03
2022-11-05T05:45:10.038Z,101093.66
2022-11-05T05:47:36.462Z,101093.00
2022-11-05T05:50:02.862Z,101090.06
2022-11-05T05:52:29.189Z,101088.41
2022-11-05T05:54:55.651Z,101096.56
2022-11-05T05:57:22.180Z,101091.13
2022-11-05T05:59:48.592Z,101103.72
2022-11-05T06:02:15.832Z,101108.31
2022-11-05T06:04:42.349Z,101111.91
2022-11-05T06:07:08.830Z,101110.84
2022-11-05T06:09:36.965Z,101116.72
2022-11-05T06:12:03.383Z,101132.03
2022-11-05T06:14:29.735Z,101133.72
2022-11-05T06:16:56.144Z,101141.25
2022-11-05T06:19:22.536Z,101149.25
2022-11-05T06:21:49.049Z,101147.56
2022-11-05T06:24:15.483Z,101151.13
2022-11-05T06:26:43.263Z,101154.69
2022-11-05T06:29:10.508Z,101151.97
2022-11-05T06:31:37.116Z,101153.84
2022-11-05T06:34:03.509Z,101157.44
2022-11-05T06:36:29.845Z,101169.38
2022-11-05T06:38:56.240Z,101180.28
2022-11-05T06:41:22.614Z,101181.13
2022-11-05T06:43:48.939Z,101174.84
2022-11-05T06:46:15.331Z,101192.91
2022-11-05T06:48:41.807Z,101192.91
2022-11-05T06:51:09.361Z,101193.94
2022-11-05T06:53:35.935Z,101200.22
2022-11-05T06:56:03.686Z,101199.38
2022-11-05T06:58:30.928Z,101208.22
2022-11-05T07:01:01.531Z,101208.41
2022-11-05T07:03:27.938Z,101209.25
2022-11-05T07:05:54.548Z,101215.75
2022-11-05T07:08:20.913Z,101225.81
2022-11-05T07:10:48.006Z,101224.78
2022-11-05T07:13:14.762Z,101224.78
2022-11-05T07:15:41.373Z,101238.44
2022-11-05T07:18:07.875Z,101225.63
2022-11-05T07:20:34.731Z,101242.00
2022-11-05T07:23:10.210Z,101236.06
2022-11-05T07:25:36.862Z,101232.97
2022-11-05T07:28:03.767Z,101228.56
2022-11-05T07:30:30.586Z,101239.47
2022-11-05T07:32:57.585Z,101243.03
2022-11-05T07:35:24.089Z,101236.75
2022-11-05T07:37:51.267Z,101241.16
2022-11-05T07:40:19.315Z,101243.03
2022-11-05T07:42:46.558Z,101244.72
2022-11-05T07:45:13.382Z,101242.00
2022-11-05T07:47:44.821Z,101252.06
2022-11-05T07:50:11.511Z,101254.78
2022-11-05T07:52:37.916Z,101251.22
2022-11-05T07:55:04.480Z,101253.94
2022-11-05T07:57:30.818Z,101258.38
2022-11-05T07:59:57.242Z,101261.09
2022-11-05T08:02:23.813Z,101262.97
2022-11-05T08:04:50.347Z,101265.69
2022-11-05T08:07:16.669Z,101265.69
2022-11-05T08:09:43.099Z,101271.81
2022-11-05T08:12:09.485Z,101276.41
2022-11-05T08:14:35.807Z,101272.84
2022-11-05T08:17:02.346Z,101272.00
2022-11-05T08:19:28.710Z,101274.72
2022-11-05T08:21:55.100Z,101273.69
2022-11-05T08:24:21.420Z,101281.88
2022-11-05T08:26:47.791Z,101283.75
2022-11-05T08:29:14.129Z,101290.91
2022-11-05T08:31:40.515Z,101290.06
2022-11-05T08:34:07.516Z,101292.78
2022-11-05T08:36:34.564Z,101294.50
2022-11-05T08:39:00.934Z,101302.69
2022-11-05T08:41:27.301Z,101293.47
2022-11-05T08:43:56.568Z,101296.22
2022-11-05T08:46:23.005Z,101304.38
2022-11-05T08:48:50.025Z,101306.94
2022-11-05T08:51:16.413Z,101307.97
2022-11-05T08:53:42.749Z,101307.97
2022-11-05T08:56:09.159Z,101297.03
2022-11-05T08:58:35.557Z,101306.06
2022-11-05T09:01:05.358Z,101309.50
2022-11-05T09:03:32.060Z,101309.50
2022-11-05T09:05:58.453Z,101305.03
2022-11-05T09:08:24.790Z,101310.50
2022-11-05T09:10:51.221Z,101320.41
2022-11-05T09:13:19.761Z,101323.97
2022-11-05T09:15:47.505Z,101324.81
2022-11-05T09:18:14.535Z,101337.63
2022-11-05T09:20:40.960Z,101345.63
2022-11-05T09:23:08.647Z,101347.50
2022-11-05T09:25:35.216Z,101350.22
2022-11-05T09:28:18.834Z,101343.06
2022-11-05T09:30:46.705Z,101349.19
2022-11-05T09:33:14.040Z,101358.41
2022-11-05T09:35:41.202Z,101364.72
2022-11-05T09:38:07.989Z,101363.69
2022-11-05T09:40:40.284Z,101365.38
2022-11-05T09:43:06.690Z,101367.09
2022-11-05T09:45:34.671Z,101367.09
2022-11-05T09:48:04.057Z,101365.38
2022-11-05T09:50:32.631Z,101376.28
2022-11-05T09:52:59.498Z,101381.38
2022-11-05T09:55:31.668Z,101378.00
2022-11-05T09:57:59.869Z,101382.44
2022-11-05T10:00:26.452Z,101380.53
2022-11-05T10:02:55.678Z,101386.84
2022-11-05T10:05:23.158Z,101398.59
2022-11-05T10:08:05.134Z,101385.81
2022-11-05T10:10:53.543Z,101395.03
2022-11-05T10:13:40.052Z,101390.41
2022-11-05T10:16:18.344Z,101395.03
2022-11-05T10:18:47.526Z,101398.59
2022-11-05T10:21:17.186Z,101394.00
2022-11-05T10:23:44.720Z,101383.97
2022-11-05T10:26:13.727Z,101387.53
2022-11-05T10:28:40.113Z,101390.25
2022-11-05T10:31:08.478Z,101393.84
2022-11-05T10:33:40.607Z,101393.66
2022-11-05T10:36:09.684Z,101399.94
2022-11-05T10:38:36.085Z,101401.84
2022-11-05T10:41:02.534Z,101396.38
2022-11-05T10:43:35.816Z,101407.13
2022-11-05T10:46:05.148Z,101399.94
2022-11-05T10:48:43.421Z,101399.94
2022-11-05T10:51:10.528Z,101399.94
2022-11-05T10:53:39.080Z,101411.72
2022-11-05T10:56:25.413Z,101413.44
2022-11-05T10:58:56.373Z,101415.31
2022-11-05T11:01:24.280Z,101417.84
2022-11-05T11:03:52.296Z,101420.59
2022-11-05T11:06:29.324Z,101415.31
2022-11-05T11:08:56.935Z,101426.03
2022-11-05T11:11:29.041Z,101418.69
2022-11-05T11:14:13.770Z,101421.44
2022-11-05T11:16:40.208Z,101422.28
2022-11-05T11:19:25.063Z,101421.44
2022-11-05T11:22:03.811Z,101419.75
2022-11-05T11:24:33.547Z,101410.50
2022-11-05T11:27:04.263Z,101411.38
2022-11-05T11:29:31.710Z,101414.94
2022-11-05T11:31:58.929Z,101413.25
2022-11-05T11:34:38.789Z,101417.84
2022-11-05T11:37:19.565Z,101423.97
2022-11-05T11:39:48.674Z,101423.13
2022-11-05T11:42:35.308Z,101425.00
2022-11-05T11:45:05.948Z,101423.13
2022-11-05T11:47:33.109Z,101418.50
2022-11-05T11:50:00.502Z,101419.38
2022-11-05T11:52:34.087Z,101422.97
2022-11-05T11:55:09.338Z,101425.69
2022-11-05T11:57:43.112Z,101422.97
2022-11-05T12:00:11.725Z,101427.56
2022-11-05T12:02:56.007Z,101424.84
2022-11-05T12:05:36.127Z,101420.22
2022-11-05T12:08:21.280Z,101420.22
2022-11-05T12:10:57.806Z,101419.19
2022-11-05T12:13:36.905Z,101421.09
2022-11-05T12:16:03.226Z,101422.97
2022-11-05T12:18:48.495Z,101427.38
2022-11-05T12:21:48.124Z,101437.47
2022-11-05T12:24:16.643Z,101435.56
2022-11-05T12:26:46.220Z,101423.81
2022-11-05T12:29:38.852Z,101426.53
2022-11-05T12:32:30.590Z,101421.09
2022-11-05T12:35:03.069Z,101417.50
2022-11-05T12:37:37.331Z,101423.81
2022-11-05T12:40:22.336Z,101427.56
2022-11-05T12:43:01.086Z,101428.41
2022-11-05T12:45:27.493Z,101436.59
2022-11-05T12:47:57.353Z,101433.03
2022-11-05T12:50:43.939Z,101439.34
2022-11-05T12:53:19.158Z,101426.69
2022-11-05T12:55:49.464Z,101438.50
2022-11-05T12:58:25.125Z,101423.97
2022-11-05T13:00:55.440Z,101425.69
2022-11-05T13:03:24.913Z,101429.44
2022-11-05T13:05:54.041Z,101429.28
2022-11-05T13:08:38.851Z,101431.16
2022-11-05T13:11:20.476Z,101440.34
2022-11-05T13:13:59.059Z,101437.81
2022-11-05T13:16:40.385Z,101434.03
2022-11-05T13:19:14.430Z,101436.78
2022-11-05T13:21:42.863Z,101435.06
2022-11-05T13:24:12.197Z,101435.06
2022-11-05T13:26:57.416Z,101436.78
2022-11-05T13:29:35.069Z,101441.38
2022-11-05T13:32:04.620Z,101453.13
2022-11-05T13:34:36.377Z,101452.28
2022-11-05T13:37:24.137Z,101451.44
2022-11-05T13:39:58.566Z,101457.94
2022-11-05T13:42:24.903Z,101458.78
2022-11-05T13:44:51.285Z,101461.53
2022-11-05T13:47:36.426Z,101471.59
2022-11-05T13:50:02.754Z,101468.84
2022-11-05T13:52:48.021Z,101477.91
2022-11-05T13:55:33.292Z,101476.19
2022-11-05T13:57:59.590Z,101478.94
2022-11-05T14:00:27.358Z,101476.19
2022-11-05T14:03:00.060Z,101482.50
2022-11-05T14:05:41.114Z,101486.28
2022-11-05T14:08:09.207Z,101482.66
2022-11-05T14:10:37.559Z,101486.28
2022-11-05T14:13:25.124Z,101485.38
2022-11-05T14:15:56.603Z,101484.53
2022-11-05T14:18:35.282Z,101484.38
2022-11-05T14:21:02.830Z,101490.84
2022-11-05T14:23:50.946Z,101486.44
2022-11-05T14:26:18.855Z,101485.38
2022-11-05T14:28:54.245Z,101482.66
2022-11-05T14:31:20.564Z,101490.00
2022-11-05T14:34:04.920Z,101493.75
2022-11-05T14:36:41.243Z,101491.88
2022-11-05T14:39:13.547Z,101505.53
2022-11-05T14:41:58.018Z,101514.56
2022-11-05T14:44:25.615Z,101508.25
2022-11-05T14:46:54.086Z,101510.13
2022-11-05T14:49:37.971Z,101510.97
2022-11-05T14:52:09.171Z,101513.72
2022-11-05T14:54:40.124Z,101512.69
2022-11-05T14:57:06.606Z,101522.75
2022-11-05T14:59:34.376Z,101514.56
2022-11-05T15:02:00.848Z,101518.13
2022-11-05T15:04:29.105Z,101515.59
2022-11-05T15:07:01.538Z,101526.50
2022-11-05T15:09:46.814Z,101521.06
2022-11-05T15:12:31.664Z,101522.75
2022-11-05T15:14:59.241Z,101526.50
2022-11-05T15:17:40.771Z,101525.66
2022-11-05T15:20:07.513Z,101529.25
2022-11-05T15:22:40.157Z,101524.63
2022-11-05T15:25:15.638Z,101531.97
2022-11-05T15:27:50.216Z,101530.09
2022-11-05T15:30:18.804Z,101535.53
2022-11-05T15:32:45.231Z,101538.47
2022-11-05T15:35:23.418Z,101533.00
2022-11-05T15:37:54.720Z,101539.50
2022-11-05T15:40:24.064Z,101543.06
2022-11-05T15:43:10.831Z,101534.88
2022-11-05T15:45:37.456Z,101552.09
2022-11-05T15:48:12.488Z,101538.47
2022-11-05T15:50:38.966Z,101543.91
2022-11-05T15:53:41.681Z,101550.41
2022-11-05T15:56:08.487Z,101544.94
2022-11-05T15:58:37.160Z,101544.06
2022-11-05T16:01:03.657Z,101547.69
2022-11-05T16:03:34.441Z,101541.34
2022-11-05T16:06:01.662Z,101541.53
2022-11-05T16:08:29.822Z,101547.84
2022-11-05T16:11:00.090Z,101531.47
2022-11-05T16:13:36.660Z,101542.38
2022-11-05T16:16:21.102Z,101554.34
2022-11-05T16:18:47.516Z,101554.34
2022-11-05T16:21:13.826Z,101542.56
2022-11-05T16:23:49.620Z,101555.38
2022-11-05T16:27:02.336Z,101558.94
2022-11-05T16:29:32.402Z,101552.63
2022-11-05T16:32:00.063Z,101556.22
2022-11-05T16:34:27.581Z,101556.38
2022-11-05T16:36:55.267Z,101552.63
2022-11-05T16:39:21.676Z,101563.56
2022-11-05T16:41:48.519Z,101558.94
2022-11-05T16:44:15.066Z,101560.81
2022-11-05T16:46:43.590Z,101567.13
2022-11-05T16:49:13.424Z,101569.00
2022-11-05T16:51:39.857Z,101564.56
2022-11-05T16:54:06.295Z,101561.81
2022-11-05T16:56:33.002Z,101571.03
2022-11-05T16:58:59.583Z,101568.31
2022-11-05T17:01:26.126Z,101571.03
2022-11-05T17:03:52.970Z,101581.94
2022-11-05T17:06:20.362Z,101584.69
2022-11-05T17:08:47.349Z,101587.41
2022-11-05T17:11:17.975Z,101587.41
2022-11-05T17:13:44.612Z,101591.19
2022-11-05T17:16:12.090Z,101593.06
2022-11-05T17:18:42.214Z,101596.63
2022-11-05T17:21:10.181Z,101600.22
2022-11-05T17:23:36.800Z,101605.66
2022-11-05T17:26:05.475Z,101609.25
2022-11-05T17:28:32.921Z,101608.56
2022-11-05T17:31:03.897Z,101605.66
2022-11-05T17:33:30.339Z,101601.25
2022-11-05T17:35:56.711Z,101602.09
2022-11-05T17:38:24.085Z,101608.56
2022-11-05T17:40:50.965Z,101616.75
2022-11-05T17:43:17.813Z,101614.03
2022-11-05T17:45:45.464Z,101622.22
2022-11-05T17:48:12.236Z,101624.09
2022-11-05T17:50:46.230Z,101630.41
2022-11-05T17:53:13.450Z,101637.56
2022-11-05T17:55:41.464Z,101636.72
2022-11-05T17:58:07.885Z,101633.13
2022-11-05T18:00:34.863Z,101631.25
2022-11-05T18:03:01.265Z,101632.28
2022-11-05T18:05:27.993Z,101639.63
2022-11-05T18:07:55.440Z,101631.59
2022-11-05T18:10:25.226Z,101632.28
2022-11-05T18:12:51.650Z,101628.72
2022-11-05T18:15:18.106Z,101634.16
2022-11-05T18:17:45.744Z,101629.72
2022-11-05T18:20:18.580Z,101640.63
2022-11-05T18:22:45.882Z,101649.66
2022-11-05T18:25:12.960Z,101648.81
2022-11-05T18:27:40.480Z,101646.94
2022-11-05T18:30:07.189Z,101648.81
2022-11-05T18:32:33.644Z,101644.38
2022-11-05T18:35:00.035Z,101641.66
2022-11-05T18:37:26.414Z,101639.78
2022-11-05T18:39:53.218Z,101638.09
2022-11-05T18:42:20.323Z,101633.47
2022-11-05T18:44:47.125Z,101638.09
2022-11-05T18:47:13.729Z,101628.34
2022-11-05T18:49:40.180Z,101631.78
2022-11-05T18:52:06.506Z,101629.06
2022-11-05T18:54:33.027Z,101630.94
2022-11-05T18:56:59.457Z,101631.78
2022-11-05T18:59:41.971Z,101628.19
2022-11-05T19:02:10.797Z,101638.09
2022-11-05T19:04:37.720Z,101639.13
2022-11-05T19:07:05.553Z,101636.38
2022-11-05T19:09:32.838Z,101644.56
2022-11-05T19:11:59.180Z,101642.69
2022-11-05T19:14:25.560Z,101640.13
2022-11-05T19:16:51.895Z,101639.13
2022-11-05T19:19:18.288Z,101650.19
2022-11-05T19:21:44.662Z,101639.25
2022-11-05T19:24:16.759Z,101653.75
2022-11-05T19:26:43.797Z,101659.41
2022-11-05T19:29:10.275Z,101659.22
2022-11-05T19:31:36.972Z,101661.09
2022-11-05T19:34:03.497Z,101649.34
2022-11-05T19:36:30.075Z,101643.88
2022-11-05T19:38:57.567Z,101654.63
2022-11-05T19:41:24.641Z,101653.94
2022-11-05T19:43:54.152Z,101653.94
2022-11-05T19:46:21.280Z,101651.22
2022-11-05T19:48:47.735Z,101653.94
2022-11-05T19:51:19.211Z,101652.91
2022-11-05T19:53:45.661Z,101649.34
2022-11-05T19:56:16.661Z,101648.47
2022-11-05T19:58:43.811Z,101643.03
2022-11-05T20:01:11.103Z,101650.19
2022-11-05T20:03:37.851Z,101648.47
2022-11-05T20:06:09.102Z,101653.94
2022-11-05T20:08:53.060Z,101661.28
2022-11-05T20:11:21.938Z,101660.44
2022-11-05T20:13:48.273Z,101658.56
2022-11-05T20:16:24.002Z,101657.69
2022-11-05T20:18:50.520Z,101663.16
2022-11-05T20:21:17.236Z,101656.84
2022-11-05T20:23:43.658Z,101660.44
2022-11-05T20:26:10.769Z,101659.59
2022-11-05T20:28:38.491Z,101661.28
2022-11-05T20:31:08.764Z,101657.84
2022-11-05T20:33:35.219Z,101668.63
2022-11-05T20:36:02.933Z,101668.63
2022-11-05T20:38:29.280Z,101669.66
2022-11-05T20:40:55.740Z,101675.09
2022-11-05T20:43:27.493Z,101663.31
2022-11-05T20:45:57.972Z,101667.06
2022-11-05T20:48:25.501Z,101683.28
2022-11-05T20:50:51.903Z,101678.81
2022-11-05T20:53:18.953Z,101689.75
2022-11-05T20:55:46.666Z,101682.41
2022-11-05T20:58:14.564Z,101684.28
2022-11-05T21:00:47.157Z,101690.59
2022-11-05T21:03:13.497Z,101687.38
2022-11-05T21:05:46.388Z,101677.81
2022-11-05T21:08:13.403Z,101678.69
2022-11-05T21:10:40.541Z,101675.25
2022-11-05T21:13:07.066Z,101683.28
2022-11-05T21:15:35.643Z,101679.69
2022-11-05T21:18:02.483Z,101680.72
2022-11-05T21:20:28.987Z,101684.28
2022-11-05T21:22:55.336Z,101686.16
2022-11-05T21:25:21.779Z,101691.63
2022-11-05T21:27:48.103Z,101690.78
2022-11-05T21:30:14.859Z,101693.50
2022-11-05T21:32:41.262Z,101700.66
2022-11-05T21:35:07.885Z,101696.22
2022-11-05T21:37:34.364Z,101698.97
2022-11-05T21:40:01.011Z,101704.41
2022-11-05T21:42:28.819Z,101696.41
2022-11-05T21:45:00.056Z,101705.44
2022-11-05T21:47:27.958Z,101695.56
2022-11-05T21:49:54.301Z,101696.41
2022-11-05T21:52:39.110Z,101700.84
2022-11-05T21:55:41.224Z,101693.69
2022-11-05T21:58:33.476Z,101696.41
2022-11-05T22:01:00.027Z,101697.41
2022-11-05T22:03:26.488Z,101691.09
2022-11-05T22:05:52.922Z,101692.84
2022-11-05T22:08:19.655Z,101696.56
2022-11-05T22:10:46.018Z,101690.25
2022-11-05T22:13:12.450Z,101688.22
2022-11-05T22:15:38.771Z,101687.53
2022-11-05T22:18:05.130Z,101697.41
2022-11-05T22:20:31.554Z,101701.00
2022-11-05T22:22:57.876Z,101691.94
2022-11-05T22:25:24.275Z,101692.84
2022-11-05T22:27:50.715Z,101686.50
2022-11-05T22:30:17.070Z,101691.09
2022-11-05T22:32:43.439Z,101687.38
2022-11-05T22:35:10.299Z,101690.94
2022-11-05T22:37:36.750Z,101686.50
2022-11-05T22:40:05.237Z,101696.41
2022-11-05T22:42:31.651Z,101699.28
2022-11-05T22:44:58.929Z,101691.94
2022-11-05T22:47:25.369Z,101693.84
2022-11-05T22:49:51.768Z,101692.84
2022-11-05T22:52:18.209Z,101696.56
2022-11-05T22:54:44.566Z,101699.28
2022-11-05T22:57:10.919Z,101700.31
2022-11-05T22:59:37.299Z,101705.78
2022-11-05T23:02:08.410Z,101696.94
2022-11-05T23:04:36.266Z,101694.84
2022-11-05T23:07:26.121Z,101699.47
2022-11-05T23:10:12.387Z,101705.78
2022-11-05T23:12:38.881Z,101706.81
2022-11-05T23:15:06.794Z,101702.38
2022-11-05T23:17:51.752Z,101704.06
2022-11-05T23:20:40.261Z,101704.06
2022-11-05T23:23:27.992Z,101693.31
2022-11-05T23:25:58.212Z,101696.03
2022-11-05T23:28:24.825Z,101697.78
2022-11-05T23:31:10.237Z,101690.59
2022-11-05T23:33:37.218Z,101688.75
2022-11-05T23:36:22.308Z,101691.47
2022-11-05T23:38:48.634Z,101691.47
2022-11-05T23:41:33.467Z,101695.19
2022-11-05T23:44:18.305Z,101694.34
2022-11-05T23:47:03.100Z,101686.16
2022-11-05T23:49:29.449Z,101688.88
2022-11-05T23:51:55.842Z,101686.16
2022-11-05T23:54:22.485Z,101684.28
2022-11-05T23:56:48.817Z,101680.72
2022-11-05T23:59:15.160Z,101676.09
